Time;durP1;ratioP1;P1;durP2;ratioP2;P2;SDS_P1;SDS_P2;PMS_P1;PMS_P2;Temp;Humidity;BMP_temperature;BMP_pressure;BME280_temperature;BME280_humidity;BME280_pressure;Samples;Min_cycle;Max_cycle;Signal;HPM_P1;HPM_P2
2022/06/29 02:58:46;;;;;;;10.13;3.85;;;;;;;24.68;37.36;99878.16;5015850;28;20556;-63
2022/06/29 03:01:12;;;;;;;6.93;3.97;;;;;;;24.34;36.35;99876.19;5030381;28;20091;-63
2022/06/29 03:03:38;;;;;;;5.78;4.00;;;;;;;24.09;37.15;99875.03;5031894;28;20119;-64
2022/06/29 03:06:03;;;;;;;9.27;4.00;;;;;;;23.74;37.35;99874.97;5031901;28;20111;-63
2022/06/29 03:08:29;;;;;;;11.32;4.10;;;;;;;23.72;37.96;99877.16;5029917;28;20406;-63
2022/06/29 03:10:55;;;;;;;6.90;3.20;;;;;;;23.99;36.91;99868.81;5031722;28;20048;-65
2022/06/29 03:13:20;;;;;;;6.15;3.47;;;;;;;23.98;36.58;99869.13;5031984;28;20046;-63
2022/06/29 03:15:46;;;;;;;6.40;3.35;;;;;;;23.67;37.42;99866.44;5030521;28;20045;-64
2022/06/29 03:18:12;;;;;;;6.60;3.47;;;;;;;23.46;37.62;99866.22;5030183;28;20403;-62
2022/06/29 03:20:37;;;;;;;4.80;3.42;;;;;;;23.60;37.65;99863.41;5031585;28;20068;-64
2022/06/29 03:23:03;;;;;;;6.55;3.30;;;;;;;23.61;36.79;99865.78;5031823;28;20407;-63
2022/06/29 03:25:29;;;;;;;3.72;2.92;;;;;;;23.55;35.80;99867.84;5030085;28;20088;-63
2022/06/29 03:27:54;;;;;;;8.00;3.30;;;;;;;23.40;36.12;99860.13;5031715;28;20041;-62
2022/06/29 03:30:20;;;;;;;4.72;2.75;;;;;;;23.28;35.67;99866.13;5031489;28;20100;-64
2022/06/29 03:32:45;;;;;;;8.18;2.80;;;;;;;23.17;35.36;99864.00;5030024;28;20041;-62
2022/06/29 03:35:11;;;;;;;4.03;2.83;;;;;;;23.15;35.75;99860.78;5030051;28;20033;-63
2022/06/29 03:37:37;;;;;;;6.30;2.90;;;;;;;23.14;35.21;99860.00;5030144;28;20064;-63
2022/06/29 03:40:03;;;;;;;5.60;3.20;;;;;;;23.21;34.95;99860.38;5031463;28;20053;-64
2022/06/29 03:42:29;;;;;;;4.18;2.70;;;;;;;23.13;34.43;99867.31;5029957;28;20415;-64
2022/06/29 03:44:55;;;;;;;4.85;2.70;;;;;;;23.15;34.17;99867.00;5031155;28;20041;-63
2022/06/29 03:47:22;;;;;;;5.88;2.75;;;;;;;23.08;35.07;99867.44;5029887;28;20454;-63
2022/06/29 03:49:48;;;;;;;4.38;2.60;;;;;;;23.31;34.88;99868.19;5031218;28;20045;-63
2022/06/29 03:52:14;;;;;;;4.35;2.55;;;;;;;23.31;34.31;99857.38;5031455;28;20094;-63
2022/06/29 03:54:39;;;;;;;3.92;3.08;;;;;;;23.48;33.97;99869.41;5030041;28;20046;-63
2022/06/29 03:57:05;;;;;;;4.50;2.78;;;;;;;23.71;34.22;99870.19;5031261;28;20052;-63
2022/06/29 03:59:31;;;;;;;6.13;2.70;;;;;;;23.65;34.71;99864.06;5030900;28;20519;-63
2022/06/29 04:01:56;;;;;;;9.13;3.20;;;;;;;23.36;35.13;99867.28;5029749;28;20120;-63
2022/06/29 04:04:22;;;;;;;4.72;3.00;;;;;;;23.16;35.35;99860.50;5029560;28;20043;-63
2022/06/29 04:06:48;;;;;;;6.43;3.13;;;;;;;23.25;35.08;99857.84;5030967;28;20057;-63
2022/06/29 04:09:13;;;;;;;3.60;2.55;;;;;;;23.41;35.12;99861.72;5030604;28;20099;-65
2022/06/29 04:11:48;;;;;;;6.30;3.10;;;;;;;23.07;35.24;99857.72;4996753;28;20060;-64
2022/06/29 04:14:15;;;;;;;5.93;2.95;;;;;;;23.23;35.35;99852.72;5029862;28;20065;-64
2022/06/29 04:16:41;;;;;;;5.63;2.85;;;;;;;23.47;34.58;99852.38;5029803;28;20045;-63
2022/06/29 04:19:07;;;;;;;3.92;2.55;;;;;;;23.86;33.58;99853.50;5032355;28;20513;-64
2022/06/29 04:21:32;;;;;;;6.60;2.72;;;;;;;24.13;33.06;99852.44;5033191;28;20052;-64
2022/06/29 04:23:58;;;;;;;5.78;2.67;;;;;;;24.37;32.40;99857.38;5034759;28;20087;-64
2022/06/29 04:26:24;;;;;;;3.72;2.83;;;;;;;24.38;31.30;99850.84;5034384;28;20096;-64
2022/06/29 04:28:49;;;;;;;9.10;2.88;;;;;;;24.33;31.83;99836.69;5034271;28;20041;-64
2022/06/29 04:31:15;;;;;;;3.20;2.60;;;;;;;24.07;31.96;99845.56;5033426;28;20052;-64
2022/06/29 04:33:41;;;;;;;4.50;3.05;;;;;;;24.25;32.04;99849.91;5034222;28;20590;-64
2022/06/29 04:36:07;;;;;;;8.52;2.72;;;;;;;24.26;31.28;99845.28;5032950;28;20120;-65
2022/06/29 04:38:33;;;;;;;6.82;2.70;;;;;;;24.47;31.16;99843.56;5034438;28;20064;-64
2022/06/29 04:41:00;;;;;;;4.82;2.83;;;;;;;24.59;30.87;99845.66;5034441;28;20091;-65
2022/06/29 04:43:27;;;;;;;8.05;2.58;;;;;;;24.48;31.52;99845.16;5034533;28;20504;-65
2022/06/29 04:48:38;;;;;;;7.47;2.72;;;;;;;24.53;30.79;99855.06;5034014;28;20060;-65
2022/06/29 04:51:04;;;;;;;6.30;2.58;;;;;;;24.45;30.83;99848.50;5032972;28;20041;-65
2022/06/29 04:53:30;;;;;;;6.13;2.85;;;;;;;24.35;31.00;99865.03;5034265;28;20049;-64
2022/06/29 04:55:55;;;;;;;6.35;2.83;;;;;;;24.45;30.15;99861.25;5034118;28;20418;-65
2022/06/29 04:58:21;;;;;;;7.88;2.80;;;;;;;24.38;30.01;99855.47;5033909;28;20046;-64
2022/06/29 05:00:47;;;;;;;2.67;2.10;;;;;;;24.34;30.00;99859.94;5034092;28;20103;-64
2022/06/29 05:03:12;;;;;;;7.00;2.55;;;;;;;24.24;29.88;99861.84;5032643;28;20420;-64
2022/06/29 05:05:38;;;;;;;5.45;2.35;;;;;;;24.17;29.27;99860.72;5033725;28;20046;-66
2022/06/29 05:08:04;;;;;;;4.72;2.30;;;;;;;24.11;29.45;99864.69;5033688;28;20458;-64
2022/06/29 05:10:30;;;;;;;4.15;2.17;;;;;;;24.20;29.44;99869.00;5032215;28;20041;-65
2022/06/29 05:12:57;;;;;;;3.13;2.28;;;;;;;24.42;29.59;99870.81;5032635;28;20091;-65
2022/06/29 05:15:22;;;;;;;9.15;2.60;;;;;;;23.94;30.22;99868.97;5033616;28;20124;-65
2022/06/29 05:17:48;;;;;;;6.45;2.75;;;;;;;23.58;30.52;99855.59;5033896;28;20121;-66
2022/06/29 05:20:14;;;;;;;4.05;2.28;;;;;;;23.42;29.93;99867.94;5033664;28;20038;-66
2022/06/29 05:22:40;;;;;;;6.25;2.40;;;;;;;23.22;30.68;99872.78;5033676;28;20077;-64
2022/06/29 05:25:06;;;;;;;3.25;1.90;;;;;;;23.04;31.00;99873.78;5015504;28;20045;-65
2022/06/29 05:27:32;;;;;;;4.05;2.30;;;;;;;22.88;31.33;99874.13;5033593;28;20053;-64
2022/06/29 05:29:58;;;;;;;4.97;2.30;;;;;;;22.95;31.71;99873.72;5032655;28;20045;-63
2022/06/29 05:32:24;;;;;;;3.67;2.30;;;;;;;22.97;32.15;99871.53;5031941;28;20538;-65
2022/06/29 05:34:50;;;;;;;4.38;2.13;;;;;;;22.96;31.70;99866.41;5033069;28;20050;-64
2022/06/29 05:37:16;;;;;;;4.10;2.40;;;;;;;22.56;33.52;99867.06;5033255;28;20057;-64
2022/06/29 05:39:44;;;;;;;3.03;2.13;;;;;;;22.36;33.03;99868.31;5032035;28;20076;-65
2022/06/29 05:42:12;;;;;;;4.45;2.25;;;;;;;22.12;33.28;99868.53;5033273;28;20187;-65
2022/06/29 05:44:38;;;;;;;8.63;2.78;;;;;;;22.02;33.93;99866.03;5033055;28;20041;-65
2022/06/29 05:47:05;;;;;;;3.17;2.22;;;;;;;22.00;33.15;99870.91;5033020;28;20045;-64
2022/06/29 05:49:31;;;;;;;6.32;2.10;;;;;;;21.91;32.66;99868.16;5032622;28;20052;-64
2022/06/29 05:51:56;;;;;;;2.45;2.25;;;;;;;21.76;32.73;99868.44;5032972;28;20038;-65
2022/06/29 05:54:22;;;;;;;3.75;2.28;;;;;;;21.65;33.70;99869.72;5032743;28;20080;-65
2022/06/29 05:56:48;;;;;;;4.13;2.30;;;;;;;21.46;32.94;99861.72;5015023;28;20144;-65
2022/06/29 05:59:13;;;;;;;6.00;2.10;;;;;;;21.50;33.48;99863.53;5032530;28;20056;-65
2022/06/29 06:01:39;;;;;;;4.05;2.22;;;;;;;21.65;33.42;99861.63;5032916;28;20049;-65
2022/06/29 06:04:05;;;;;;;9.45;2.53;;;;;;;21.62;33.90;99859.53;5031297;28;20041;-63
2022/06/29 06:06:30;;;;;;;2.85;2.10;;;;;;;21.50;34.17;99854.63;5031226;28;20049;-64
2022/06/29 06:08:56;;;;;;;16.25;2.90;;;;;;;21.36;34.42;99851.94;5032434;28;20041;-63
2022/06/29 06:11:21;;;;;;;5.15;3.70;;;;;;;21.13;34.01;99850.16;5032484;28;20407;-63
2022/06/29 06:13:47;;;;;;;3.78;2.38;;;;;;;21.06;34.39;99848.66;5032609;28;20364;-65
2022/06/29 06:16:13;;;;;;;1.85;1.75;;;;;;;20.94;34.19;99856.41;5032550;28;20486;-64
2022/06/29 06:18:39;;;;;;;5.45;2.20;;;;;;;20.84;35.77;99849.28;5032267;28;20041;-64
2022/06/29 06:21:05;;;;;;;5.03;2.35;;;;;;;20.80;35.53;99844.78;5014766;28;20080;-64
2022/06/29 06:23:30;;;;;;;3.30;2.25;;;;;;;20.68;36.67;99842.53;5030896;28;20052;-64
2022/06/29 06:25:56;;;;;;;3.42;2.20;;;;;;;20.71;35.30;99850.03;5032208;28;20088;-65
2022/06/29 06:28:22;;;;;;;3.75;2.10;;;;;;;20.72;35.04;99846.22;5031996;28;20049;-64
2022/06/29 06:30:48;;;;;;;5.22;1.98;;;;;;;20.82;34.96;99837.19;5032306;28;20060;-66
2022/06/29 06:33:13;;;;;;;4.38;2.35;;;;;;;20.70;35.77;99829.56;5032408;28;20137;-64
2022/06/29 06:35:39;;;;;;;2.78;2.33;;;;;;;20.81;35.68;99843.66;5032368;28;20120;-65
2022/06/29 06:38:05;;;;;;;2.40;2.20;;;;;;;20.68;35.97;99834.47;5030833;28;20053;-64
2022/06/29 06:43:15;;;;;;;3.33;2.33;;;;;;;20.67;35.36;99834.72;5029694;28;20042;-65
2022/06/29 06:45:42;;;;;;;3.40;2.38;;;;;;;20.57;35.02;99838.41;5031873;28;20047;-65
2022/06/29 06:48:08;;;;;;;3.20;2.50;;;;;;;20.61;35.61;99826.72;5032347;28;20312;-66
2022/06/29 06:50:33;;;;;;;3.00;2.30;;;;;;;20.61;35.96;99823.25;5031470;28;20072;-64
2022/06/29 06:52:59;;;;;;;4.50;2.20;;;;;;;20.78;34.67;99825.41;5030233;28;20063;-63
2022/06/29 06:55:25;;;;;;;3.13;2.38;;;;;;;20.82;35.17;99821.84;5031420;28;20041;-64
2022/06/29 06:57:51;;;;;;;3.15;2.05;;;;;;;20.67;31.86;99832.84;5030975;28;20469;-65
2022/06/29 07:00:16;;;;;;;4.43;2.10;;;;;;;20.59;33.40;99833.53;5028943;28;20105;-65
2022/06/29 07:02:42;;;;;;;3.97;2.30;;;;;;;20.51;33.83;99828.75;5030327;28;20079;-64
2022/06/29 07:05:08;;;;;;;2.40;1.80;;;;;;;20.43;32.51;99820.25;5030656;28;20135;-65
2022/06/29 07:07:34;;;;;;;2.78;1.83;;;;;;;20.45;33.84;99830.72;5030822;28;20411;-65
2022/06/29 07:10:00;;;;;;;2.90;2.00;;;;;;;20.43;33.78;99816.75;5030236;28;20044;-64
2022/06/29 07:12:26;;;;;;;3.45;2.58;;;;;;;20.36;34.71;99830.59;5030812;28;20045;-64
2022/06/29 07:14:52;;;;;;;4.57;2.35;;;;;;;20.35;34.82;99823.59;5030195;28;20537;-65
2022/06/29 07:17:18;;;;;;;3.05;1.95;;;;;;;20.26;35.16;99829.91;5029629;28;20507;-65
2022/06/29 07:19:43;;;;;;;2.72;2.13;;;;;;;20.36;35.21;99824.41;5031477;28;20037;-64
2022/06/29 07:22:09;;;;;;;3.88;2.25;;;;;;;20.45;32.35;99822.66;5029916;28;20140;-65
2022/06/29 07:24:35;;;;;;;5.15;2.17;;;;;;;20.38;32.10;99814.13;5031452;28;20045;-65
2022/06/29 07:27:01;;;;;;;3.67;2.17;;;;;;;20.42;33.82;99817.84;5031197;28;20058;-65
2022/06/29 07:29:26;;;;;;;2.90;2.20;;;;;;;20.49;34.04;99828.25;5031104;28;20049;-64
2022/06/29 07:31:52;;;;;;;2.55;2.35;;;;;;;20.57;34.92;99833.00;5031087;28;20048;-64
2022/06/29 07:34:18;;;;;;;3.03;2.17;;;;;;;20.59;34.43;99833.53;5029676;28;20065;-66
2022/06/29 07:36:43;;;;;;;3.20;2.08;;;;;;;20.58;31.21;99821.94;5031104;28;20042;-65
2022/06/29 07:39:09;;;;;;;2.08;1.92;;;;;;;20.65;31.40;99832.34;5029792;28;20053;-64
2022/06/29 07:41:36;;;;;;;4.57;2.10;;;;;;;20.63;31.47;99821.84;5030972;28;20060;-66
2022/06/29 07:44:05;;;;;;;2.78;1.83;;;;;;;20.63;31.60;99821.06;5030866;28;20044;-64
2022/06/29 07:46:31;;;;;;;6.32;2.20;;;;;;;20.68;31.23;99804.00;5031066;28;20069;-65
2022/06/29 07:48:57;;;;;;;2.50;1.98;;;;;;;20.74;31.42;99817.13;5030825;28;20134;-66
2022/06/29 07:51:23;;;;;;;5.10;2.50;;;;;;;20.58;31.47;99816.53;5029546;28;20037;-65
2022/06/29 07:53:48;;;;;;;4.15;2.20;;;;;;;20.46;32.18;99805.38;5014378;28;20052;-65
2022/06/29 07:56:14;;;;;;;3.65;2.05;;;;;;;20.55;31.82;99811.75;5034121;28;20179;-65
2022/06/29 07:58:40;;;;;;;3.50;2.08;;;;;;;20.55;32.70;99817.13;5034759;28;20065;-64
2022/06/29 08:01:05;;;;;;;5.20;2.20;;;;;;;20.64;32.23;99807.28;5035149;28;20422;-68
2022/06/29 08:03:31;;;;;;;2.60;1.90;;;;;;;20.57;31.68;99803.38;5017155;28;20045;-64
2022/06/29 08:05:58;;;;;;;3.33;2.33;;;;;;;20.52;32.50;99806.94;5017008;28;20411;-67
2022/06/29 08:08:24;;;;;;;2.95;2.00;;;;;;;20.55;34.98;99800.19;5017113;28;20400;-64
2022/06/29 08:10:50;;;;;;;2.97;2.08;;;;;;;20.60;32.29;99797.41;5033634;28;20052;-66
2022/06/29 08:13:16;;;;;;;2.50;2.20;;;;;;;20.60;32.43;99805.50;5035001;28;20053;-65
2022/06/29 08:15:43;;;;;;;2.50;2.22;;;;;;;20.60;32.59;99797.41;5034611;28;20041;-65
2022/06/29 08:18:08;;;;;;;2.50;2.20;;;;;;;20.61;32.67;99799.78;5035016;28;20056;-66
2022/06/29 08:20:34;;;;;;;2.10;1.90;;;;;;;20.56;32.99;99782.91;5034406;28;20120;-65
2022/06/29 08:23:00;;;;;;;3.80;2.22;;;;;;;20.60;32.23;99787.44;5034867;28;20483;-66
2022/06/29 08:25:26;;;;;;;4.72;2.47;;;;;;;20.66;32.79;99777.38;5033335;28;20046;-64
2022/06/29 08:27:54;;;;;;;2.88;2.30;;;;;;;20.64;32.52;99771.47;5033414;28;20052;-64
2022/06/29 08:30:21;;;;;;;3.25;2.05;;;;;;;20.69;32.17;99762.53;5034534;28;20136;-64
2022/06/29 08:32:46;;;;;;;2.72;2.05;;;;;;;20.59;32.45;99761.59;5033125;28;20060;-66
2022/06/29 08:35:14;;;;;;;2.70;2.20;;;;;;;20.58;30.97;99778.03;5034142;28;20041;-64
2022/06/29 08:37:40;;;;;;;3.08;2.30;;;;;;;20.62;32.17;99766.41;5034617;28;20091;-64
2022/06/29 08:40:08;;;;;;;5.40;2.10;;;;;;;20.56;33.02;99783.75;5034485;28;20072;-65
2022/06/29 08:42:36;;;;;;;4.60;2.33;;;;;;;20.64;33.17;99766.09;5034563;28;20049;-63
2022/06/29 08:45:03;;;;;;;3.20;2.22;;;;;;;20.79;33.26;99760.44;5032992;28;20426;-64
2022/06/29 08:47:29;;;;;;;3.83;2.00;;;;;;;20.70;32.08;99769.50;5034178;28;20071;-65
2022/06/29 08:49:56;;;;;;;2.55;2.17;;;;;;;20.75;31.80;99759.44;5034051;28;20132;-63
2022/06/29 08:52:24;;;;;;;2.60;2.15;;;;;;;20.73;31.66;99763.53;5032706;28;20072;-64
2022/06/29 08:54:52;;;;;;;6.40;2.08;;;;;;;20.79;32.58;99752.34;5033818;28;20048;-65
2022/06/29 08:57:18;;;;;;;3.78;2.08;;;;;;;20.88;31.98;99741.69;5032811;28;20132;-64
2022/06/29 08:59:44;;;;;;;2.83;2.15;;;;;;;20.98;31.86;99746.91;5033707;28;20093;-64
2022/06/29 09:02:11;;;;;;;5.82;2.17;;;;;;;21.01;32.54;99740.94;5033969;28;20041;-65
2022/06/29 09:04:37;;;;;;;6.68;2.40;;;;;;;21.10;33.35;99749.13;5033556;28;20076;-64
2022/06/29 09:07:03;;;;;;;6.53;1.98;;;;;;;21.10;30.50;99749.91;5033396;28;20069;-65
2022/06/29 09:09:29;;;;;;;4.22;2.38;;;;;;;21.04;30.83;99742.22;5033576;28;20491;-65
2022/06/29 09:11:55;;;;;;;2.88;1.80;;;;;;;20.91;31.19;99740.31;5033965;28;20045;-64
2022/06/29 09:14:23;;;;;;;2.58;2.00;;;;;;;20.95;31.42;99758.28;5033607;28;20569;-66
2022/06/29 09:16:49;;;;;;;3.10;2.00;;;;;;;20.81;31.03;99768.25;5033848;28;20076;-64
2022/06/29 09:19:15;;;;;;;2.47;2.10;;;;;;;20.80;31.51;99759.34;5033639;28;20495;-65
2022/06/29 09:21:47;;;;;;;3.08;2.15;;;;;;;20.83;30.77;99734.50;5032222;28;20049;-65
2022/06/29 09:24:14;;;;;;;2.92;2.10;;;;;;;20.92;30.56;99747.31;5033364;28;20534;-65
2022/06/29 09:26:40;;;;;;;3.00;2.30;;;;;;;20.96;30.34;99740.22;5033455;28;20049;-64
2022/06/29 09:29:26;;;;;;;3.78;2.40;;;;;;;21.01;30.27;99734.75;5033348;28;20041;-64
2022/06/29 09:32:01;;;;;;;3.67;2.20;;;;;;;21.15;30.86;99730.16;5032243;28;20133;-64
2022/06/29 09:34:28;;;;;;;4.30;2.40;;;;;;;21.21;31.32;99744.34;5033093;28;20578;-65
2022/06/29 09:36:55;;;;;;;3.92;2.30;;;;;;;21.17;30.27;99727.16;5031795;28;20106;-65
2022/06/29 09:39:41;;;;;;;2.38;2.10;;;;;;;21.25;29.92;99727.25;5033073;28;20029;-65
2022/06/29 09:42:11;;;;;;;2.63;1.83;;;;;;;21.21;27.43;99733.56;5031819;28;20055;-65
2022/06/29 09:44:36;;;;;;;;;;;;;;;21.21;29.00;99736.25;5033351;28;20049;-65
2022/06/29 09:47:08;;;;;;;2.42;2.13;;;;;;;21.26;29.69;99733.44;5031646;28;19948;-64
2022/06/29 09:49:36;;;;;;;2.58;2.08;;;;;;;21.28;30.38;99728.56;5031593;28;20038;-66
2022/06/29 09:52:04;;;;;;;2.92;1.95;;;;;;;21.35;29.26;99736.25;5031671;28;20049;-64
2022/06/29 09:54:45;;;;;;;3.78;2.10;;;;;;;21.40;30.24;99725.38;5032928;28;20041;-65
2022/06/29 09:57:12;;;;;;;2.83;1.90;;;;;;;21.39;29.99;99726.50;5031794;28;20049;-65
2022/06/29 10:02:48;;;;;;;4.07;2.15;;;;;;;21.28;29.37;99732.06;5032742;28;20057;-64
2022/06/29 10:05:14;;;;;;;2.53;2.17;;;;;;;21.25;28.69;99737.25;5032986;28;20573;-64
2022/06/29 10:07:42;;;;;;;3.13;2.30;;;;;;;21.25;28.35;99724.56;5032922;28;20049;-66
2022/06/29 10:10:16;;;;;;;4.05;2.08;;;;;;;21.46;29.19;99727.66;5032751;28;20088;-63
2022/06/29 10:15:53;;;;;;;2.50;2.00;;;;;;;21.35;28.36;99718.16;5032653;28;20033;-64
2022/06/29 10:18:52;;;;;;;2.00;1.80;;;;;;;21.49;28.12;99721.69;5032400;28;20060;-65
2022/06/29 10:21:30;;;;;;;3.60;2.00;;;;;;;21.64;28.19;99722.47;5032329;28;20046;-63
2022/06/29 10:24:01;;;;;;;2.40;2.05;;;;;;;21.68;28.48;99713.47;5032257;28;20537;-65
2022/06/29 10:26:34;;;;;;;3.53;2.30;;;;;;;21.64;27.88;99714.38;5032618;28;20110;-65
2022/06/29 10:29:06;;;;;;;2.10;1.70;;;;;;;21.57;26.78;99720.19;5014420;28;20045;-64
2022/06/29 10:31:54;;;;;;;3.95;2.00;;;;;;;21.56;26.65;99713.19;5031209;28;20072;-65
2022/06/29 10:36:59;;;;;;;2.15;1.73;;;;;;;21.59;25.68;99718.00;5032155;28;20530;-66
2022/06/29 10:39:24;;;;;;;;;;;;;;;21.55;25.98;99716.97;5031088;28;20061;-64
2022/06/29 10:45:16;;;;;;;4.03;1.95;;;;;;;21.64;26.28;99700.88;5031909;28;20050;-65
2022/06/29 10:48:07;;;;;;;2.78;1.80;;;;;;;21.69;25.60;99692.69;5029409;28;20049;-66
2022/06/29 10:50:38;;;;;;;4.68;2.10;;;;;;;21.72;26.05;99694.78;5013748;28;20049;-65
2022/06/29 10:53:06;;;;;;;5.63;2.08;;;;;;;21.75;28.26;99686.06;5031096;28;20064;-64
2022/06/29 10:55:37;;;;;;;4.18;2.28;;;;;;;21.69;28.72;99700.78;5031583;28;20550;-64
2022/06/29 10:58:03;;;;;;;2.50;2.10;;;;;;;21.59;28.89;99685.63;5030229;28;20034;-65
2022/06/29 11:00:30;;;;;;;3.58;2.08;;;;;;;21.61;28.38;99702.28;5030691;28;20132;-65
2022/06/29 11:02:57;;;;;;;4.72;2.15;;;;;;;21.66;28.49;99698.69;5032029;28;20033;-64
2022/06/29 11:05:23;;;;;;;57.17;7.72;;;;;;;21.77;28.36;99690.06;5030226;28;20550;-64
2022/06/29 11:12:01;;;;;;;3.15;1.92;;;;;;;21.92;27.04;99697.00;5031559;28;20060;-66
2022/06/29 11:13:29;;;;;;;3.05;2.10;;;;;;;21.90;26.46;99693.81;5031252;28;20523;-63
2022/06/29 11:15:57;;;;;;;5.10;2.10;;;;;;;21.95;27.01;99687.50;5030237;28;20128;-65
2022/06/29 11:18:27;;;;;;;3.10;2.00;;;;;;;21.88;27.82;99692.50;5030331;28;20044;-65
2022/06/29 11:20:53;;;;;;;3.83;2.13;;;;;;;21.70;27.56;99686.97;5030370;28;20041;-64
2022/06/29 11:23:32;;;;;;;3.03;2.10;;;;;;;21.73;27.66;99682.88;5013796;28;20045;-64
2022/06/29 11:25:59;;;;;;;4.05;2.30;;;;;;;21.81;27.55;99674.06;5030447;28;20045;-64
2022/06/29 11:28:29;;;;;;;3.33;2.00;;;;;;;21.86;26.85;99673.94;5031135;28;20093;-63
2022/06/29 11:31:03;;;;;;;7.72;2.47;;;;;;;21.87;27.06;99678.22;5031178;28;20455;-63
2022/06/29 11:33:33;;;;;;;2.75;2.28;;;;;;;21.87;26.38;99674.75;5031627;28;20172;-64
2022/06/29 11:36:19;;;;;;;3.70;2.63;;;;;;;21.92;26.29;99674.63;5031813;28;20053;-64
2022/06/29 11:38:47;;;;;;;3.42;2.20;;;;;;;21.93;26.20;99668.13;5031154;28;20088;-64
2022/06/29 11:41:25;;;;;;;2.25;2.05;;;;;;;21.97;26.62;99659.13;5030059;28;20045;-63
2022/06/29 11:44:04;;;;;;;5.20;2.13;;;;;;;21.94;26.38;99657.03;5031058;28;20053;-63
2022/06/29 11:46:37;;;;;;;3.87;2.13;;;;;;;21.94;26.51;99661.59;5031438;28;20041;-64
2022/06/29 11:51:57;;;;;;;2.60;2.00;;;;;;;21.97;26.29;99653.72;5031287;28;20129;-64
2022/06/29 11:54:47;;;;;;;2.47;2.10;;;;;;;22.00;26.65;99645.00;5031187;28;20080;-64
2022/06/29 11:57:18;;;;;;;4.05;2.33;;;;;;;22.07;26.93;99633.78;5030059;28;20044;-64
2022/06/29 11:59:45;;;;;;;3.40;2.55;;;;;;;22.16;27.07;99620.31;5029487;28;20483;-63
2022/06/29 12:02:17;;;;;;;3.25;2.10;;;;;;;22.22;27.28;99632.63;5031337;28;20037;-64
2022/06/29 12:04:44;;;;;;;3.47;1.80;;;;;;;22.24;26.46;99627.72;5031262;28;20045;-64
2022/06/29 12:07:12;;;;;;;5.47;2.17;;;;;;;22.21;27.10;99628.34;5031039;28;20049;-64
2022/06/29 12:09:39;;;;;;;4.32;2.17;;;;;;;22.13;26.17;99618.25;5030696;28;20049;-64
2022/06/29 12:12:07;;;;;;;2.72;1.88;;;;;;;22.02;26.05;99614.19;5030804;28;20463;-63
2022/06/29 12:14:33;;;;;;;2.55;2.13;;;;;;;21.92;26.29;99610.66;5030992;28;20414;-62
2022/06/29 12:16:59;;;;;;;3.30;2.17;;;;;;;21.93;26.39;99601.44;5029910;28;20056;-64
2022/06/29 12:19:25;;;;;;;4.90;2.38;;;;;;;21.95;25.96;99593.84;5030764;28;20132;-64
2022/06/29 12:21:50;;;;;;;2.40;2.08;;;;;;;21.90;25.49;99601.25;5030948;28;20507;-63
2022/06/29 12:24:17;;;;;;;2.30;2.10;;;;;;;21.93;25.78;99598.75;5030896;28;20091;-64
2022/06/29 12:26:43;;;;;;;4.78;2.17;;;;;;;21.98;26.17;99608.63;5029724;28;20045;-63
2022/06/29 12:29:09;;;;;;;6.00;2.30;;;;;;;21.92;26.34;99593.66;5030834;28;20499;-64
2022/06/29 12:31:37;;;;;;;3.08;1.90;;;;;;;21.94;25.88;99591.44;4996653;28;20049;-64
2022/06/29 12:34:04;;;;;;;2.65;2.03;;;;;;;21.98;26.13;99590.53;5030711;28;20133;-63
2022/06/29 12:36:29;;;;;;;3.33;2.40;;;;;;;21.99;26.52;99591.31;5030649;28;20112;-63
2022/06/29 12:38:56;;;;;;;2.75;2.05;;;;;;;22.08;27.18;99584.06;5029272;28;20086;-64
2022/06/29 12:41:21;;;;;;;2.28;2.08;;;;;;;22.10;25.96;99578.38;5034215;28;20128;-64
2022/06/29 12:43:47;;;;;;;5.40;1.92;;;;;;;22.09;26.23;99568.66;5034170;28;20132;-63
2022/06/29 12:46:13;;;;;;;2.38;1.80;;;;;;;22.08;25.67;99564.38;5034175;28;20128;-63
2022/06/29 12:48:39;;;;;;;2.45;1.85;;;;;;;22.02;25.50;99569.09;5034345;28;20044;-64
2022/06/29 12:51:06;;;;;;;5.20;2.00;;;;;;;22.02;24.92;99571.81;5033943;28;20053;-65
2022/06/29 12:53:31;;;;;;;3.13;2.00;;;;;;;22.03;26.30;99576.13;5033937;28;20055;-63
2022/06/29 12:55:59;;;;;;;2.65;1.77;;;;;;;22.02;26.78;99568.31;5033918;28;20037;-63
2022/06/29 12:58:25;;;;;;;6.97;2.50;;;;;;;22.00;26.82;99571.31;5034225;28;20151;-63
2022/06/29 13:00:51;;;;;;;3.35;2.25;;;;;;;22.02;26.86;99557.50;5034202;28;20480;-62
2022/06/29 13:03:17;;;;;;;2.25;1.90;;;;;;;22.03;26.58;99575.28;5032521;28;20037;-62
2022/06/29 13:05:43;;;;;;;5.82;2.65;;;;;;;21.99;27.79;99570.50;5033560;28;20049;-64
2022/06/29 13:08:10;;;;;;;2.40;1.90;;;;;;;21.98;27.12;99560.84;5032530;28;20068;-62
2022/06/29 13:10:37;;;;;;;3.72;2.22;;;;;;;22.00;26.27;99560.50;5033454;28;20515;-62
2022/06/29 13:13:03;;;;;;;2.13;1.83;;;;;;;22.06;25.92;99555.78;5034120;28;20359;-63
2022/06/29 13:15:29;;;;;;;2.30;1.90;;;;;;;22.08;27.45;99553.56;5032504;28;20045;-64
2022/06/29 13:17:55;;;;;;;2.97;2.40;;;;;;;22.08;27.28;99546.28;5033974;28;20045;-63
2022/06/29 13:20:21;;;;;;;3.20;2.03;;;;;;;22.07;27.80;99552.78;5015715;28;20567;-63
2022/06/29 13:22:46;;;;;;;3.15;2.15;;;;;;;22.07;28.03;99543.91;5033766;28;20136;-64
2022/06/29 13:25:13;;;;;;;4.10;2.30;;;;;;;22.05;28.00;99536.09;5032210;28;20041;-64
2022/06/29 13:27:38;;;;;;;3.92;2.03;;;;;;;22.05;27.95;99538.78;5033703;28;20045;-62
2022/06/29 13:30:05;;;;;;;3.42;2.25;;;;;;;22.08;28.21;99534.69;5033483;28;20123;-62
2022/06/29 13:32:30;;;;;;;2.78;2.22;;;;;;;22.11;28.04;99523.25;5033700;28;20127;-64
2022/06/29 13:34:56;;;;;;;4.90;2.15;;;;;;;22.11;28.01;99529.44;5031959;28;20132;-64
2022/06/29 13:37:22;;;;;;;3.05;1.98;;;;;;;22.06;27.76;99518.81;5033579;28;20041;-64
2022/06/29 13:39:48;;;;;;;4.65;2.25;;;;;;;22.03;27.61;99519.44;5033481;28;20052;-64
2022/06/29 13:42:13;;;;;;;4.40;2.35;;;;;;;22.05;27.70;99521.81;5032272;28;20080;-63
2022/06/29 13:44:39;;;;;;;3.65;2.30;;;;;;;22.07;28.18;99519.59;5033274;28;20053;-64
2022/06/29 13:47:05;;;;;;;3.25;2.10;;;;;;;22.09;27.88;99514.66;5033353;28;20041;-62
2022/06/29 13:49:30;;;;;;;2.45;2.08;;;;;;;22.10;27.68;99535.97;5032860;28;20072;-64
2022/06/29 13:51:57;;;;;;;2.15;1.90;;;;;;;22.00;27.75;99528.13;5032631;28;20037;-64
2022/06/29 13:54:22;;;;;;;2.70;1.98;;;;;;;22.00;27.60;99520.84;5032825;28;20499;-64
2022/06/29 13:56:48;;;;;;;4.45;2.10;;;;;;;22.01;27.74;99521.63;5033108;28;20045;-64
2022/06/29 13:59:14;;;;;;;2.28;2.00;;;;;;;22.04;27.68;99514.81;5032902;28;20061;-64
2022/06/29 14:01:40;;;;;;;3.33;2.00;;;;;;;22.06;27.61;99515.28;5032990;28;20045;-63
2022/06/29 14:04:06;;;;;;;4.57;2.30;;;;;;;22.02;27.37;99509.72;5032985;28;20091;-63
2022/06/29 14:06:31;;;;;;;3.40;1.88;;;;;;;22.04;27.55;99506.72;5032772;28;20037;-64
2022/06/29 14:08:57;;;;;;;4.28;2.30;;;;;;;22.09;27.59;99520.88;5032594;28;20053;-63
2022/06/29 14:11:23;;;;;;;3.85;2.00;;;;;;;22.10;27.71;99508.97;5032794;28;20053;-64
2022/06/29 14:13:48;;;;;;;4.13;2.05;;;;;;;22.12;27.26;99505.94;5031581;28;20045;-65
2022/06/29 14:16:16;;;;;;;3.25;2.20;;;;;;;22.12;26.99;99508.66;5032523;28;20037;-64
2022/06/29 14:18:43;;;;;;;3.08;2.72;;;;;;;22.12;26.82;99516.75;5032364;28;20045;-64
2022/06/29 14:21:10;;;;;;;5.60;2.03;;;;;;;22.12;26.64;99514.88;5032415;28;20050;-65
2022/06/29 14:23:36;;;;;;;12.55;2.70;;;;;;;22.11;26.73;99515.16;5031026;28;20500;-65
2022/06/29 14:26:02;;;;;;;4.13;2.38;;;;;;;22.12;27.72;99524.84;5032258;28;20048;-65
2022/06/29 14:28:28;;;;;;;2.28;2.03;;;;;;;22.09;27.38;99518.19;5032571;28;20124;-63
2022/06/29 14:30:53;;;;;;;3.42;1.98;;;;;;;22.06;27.43;99516.13;5030903;28;20049;-66
2022/06/29 14:33:19;;;;;;;4.75;2.10;;;;;;;22.05;27.53;99511.00;5032064;28;20091;-63
2022/06/29 14:35:45;;;;;;;5.72;2.05;;;;;;;22.08;27.71;99508.47;5032333;28;20037;-65
2022/06/29 14:38:11;;;;;;;3.08;2.20;;;;;;;22.09;27.61;99503.88;5031104;28;20041;-64
2022/06/29 14:40:37;;;;;;;3.25;2.15;;;;;;;22.06;27.64;99510.72;5030749;28;20119;-66
2022/06/29 14:43:02;;;;;;;6.60;2.08;;;;;;;22.03;27.58;99513.22;5032270;28;20056;-64
2022/06/29 14:45:28;;;;;;;3.95;3.00;;;;;;;22.03;28.00;99508.63;5030651;28;20137;-63
2022/06/29 14:47:55;;;;;;;3.22;1.90;;;;;;;22.05;27.79;99506.41;5030736;28;20087;-65
2022/06/29 14:50:22;;;;;;;4.13;2.10;;;;;;;22.05;27.59;99498.31;5031744;28;20138;-63
2022/06/29 14:52:51;;;;;;;3.30;2.08;;;;;;;22.04;28.04;99496.72;5031751;28;20457;-64
2022/06/29 14:55:17;;;;;;;2.38;2.00;;;;;;;22.01;28.08;99497.34;5031814;28;20049;-64